createdAt,value
2023-05-18T00:02:15.927Z,100.00
2023-05-18T00:04:44.131Z,100.00
2023-05-18T00:07:13.152Z,100.00
2023-05-18T00:09:41.227Z,100.00
2023-05-18T00:12:09.842Z,100.00
2023-05-18T00:14:37.445Z,100.00
2023-05-18T00:17:05.129Z,100.00
2023-05-18T00:19:33.287Z,100.00
2023-05-18T00:22:02.297Z,100.00
2023-05-18T00:24:29.946Z,100.00
2023-05-18T00:26:57.461Z,100.00
2023-05-18T00:29:25.047Z,100.00
2023-05-18T00:31:52.651Z,100.00
2023-05-18T00:34:20.229Z,100.00
2023-05-18T00:36:47.780Z,100.00
2023-05-18T00:39:15.323Z,100.00
2023-05-18T00:41:42.866Z,100.00
2023-05-18T00:44:10.405Z,100.00
2023-05-18T00:46:37.980Z,100.00
2023-05-18T00:49:05.997Z,100.00
2023-05-18T00:51:34.328Z,100.00
2023-05-18T00:54:03.585Z,100.00
2023-05-18T00:56:34.325Z,100.00
2023-05-18T00:59:03.408Z,100.00
2023-05-18T01:01:34.687Z,100.00
2023-05-18T01:04:03.229Z,100.00
2023-05-18T01:06:32.827Z,100.00
2023-05-18T01:09:04.293Z,100.00
2023-05-18T01:11:39.830Z,100.00
2023-05-18T01:14:15.264Z,100.00
2023-05-18T01:16:53.754Z,100.00
2023-05-18T01:19:46.240Z,100.00
2023-05-18T01:22:29.680Z,100.00
2023-05-18T01:25:19.551Z,100.00
2023-05-18T01:27:49.556Z,100.00
2023-05-18T01:30:18.086Z,100.00
2023-05-18T01:32:47.749Z,100.00
2023-05-18T01:35:15.533Z,100.00
2023-05-18T01:37:43.067Z,100.00
2023-05-18T01:40:10.752Z,100.00
2023-05-18T01:42:45.721Z,100.00
2023-05-18T01:45:22.493Z,100.00
2023-05-18T01:47:52.412Z,100.00
2023-05-18T01:50:30.775Z,100.00
2023-05-18T01:53:09.549Z,100.00
2023-05-18T01:55:37.886Z,100.00
2023-05-18T01:58:07.922Z,100.00
2023-05-18T02:00:36.633Z,100.00
2023-05-18T02:03:04.755Z,100.00
2023-05-18T02:05:32.602Z,100.00
2023-05-18T02:08:00.332Z,100.00
2023-05-18T02:10:27.965Z,100.00
2023-05-18T02:12:55.602Z,100.00
2023-05-18T02:15:23.100Z,100.00
2023-05-18T02:17:50.946Z,100.00
2023-05-18T02:20:19.115Z,100.00
2023-05-18T02:22:46.974Z,100.00
2023-05-18T02:25:14.486Z,100.00
2023-05-18T02:27:42.037Z,100.00
2023-05-18T02:30:11.642Z,100.00
2023-05-18T02:32:42.649Z,100.00
2023-05-18T02:35:10.718Z,100.00
2023-05-18T02:37:40.165Z,100.00
2023-05-18T02:40:12.072Z,100.00
2023-05-18T02:42:39.650Z,100.00
2023-05-18T02:45:07.701Z,100.00
2023-05-18T02:47:35.610Z,100.00
2023-05-18T02:50:03.527Z,100.00
2023-05-18T02:52:31.509Z,100.00
2023-05-18T02:54:59.061Z,100.00
2023-05-18T02:57:26.611Z,100.00
2023-05-18T02:59:54.234Z,100.00
2023-05-18T03:02:23.854Z,100.00
2023-05-18T03:04:54.098Z,100.00
2023-05-18T03:07:22.146Z,100.00
2023-05-18T03:09:49.744Z,100.00
2023-05-18T03:12:17.341Z,100.00
2023-05-18T03:14:44.889Z,100.00
2023-05-18T03:17:12.534Z,100.00
2023-05-18T03:19:40.068Z,100.00
2023-05-18T03:22:07.661Z,100.00
2023-05-18T03:24:40.104Z,100.00
2023-05-18T03:27:08.166Z,100.00
2023-05-18T03:29:35.715Z,100.00
2023-05-18T03:32:03.389Z,100.00
2023-05-18T03:34:31.042Z,100.00
2023-05-18T03:36:58.650Z,100.00
2023-05-18T03:39:26.224Z,100.00
2023-05-18T03:41:54.125Z,100.00
2023-05-18T03:44:23.219Z,100.00
2023-05-18T03:46:50.842Z,100.00
2023-05-18T03:49:18.489Z,100.00
2023-05-18T03:51:45.998Z,100.00
2023-05-18T03:54:13.652Z,100.00
2023-05-18T03:56:41.183Z,100.00
2023-05-18T03:59:09.363Z,100.00
2023-05-18T04:01:37.171Z,100.00
2023-05-18T04:04:04.865Z,100.00
2023-05-18T04:06:32.453Z,100.00
2023-05-18T04:09:04.150Z,100.00
2023-05-18T04:11:32.521Z,100.00
2023-05-18T04:14:00.975Z,100.00
2023-05-18T04:16:28.758Z,100.00
2023-05-18T04:18:56.501Z,100.00
2023-05-18T04:21:24.135Z,100.00
2023-05-18T04:23:51.662Z,100.00
2023-05-18T04:26:20.187Z,100.00
2023-05-18T04:28:48.262Z,100.00
2023-05-18T04:31:17.785Z,100.00
2023-05-18T04:33:46.634Z,100.00
2023-05-18T04:36:14.753Z,100.00
2023-05-18T04:38:42.318Z,100.00
2023-05-18T04:41:10.080Z,100.00
2023-05-18T04:43:37.936Z,100.00
2023-05-18T04:46:07.332Z,100.00
2023-05-18T04:48:35.166Z,100.00
2023-05-18T04:51:04.759Z,100.00
2023-05-18T04:53:33.381Z,100.00
2023-05-18T04:56:01.811Z,100.00
2023-05-18T04:58:30.688Z,100.00
2023-05-18T05:00:58.449Z,100.00
2023-05-18T05:03:26.164Z,100.00
2023-05-18T05:05:53.906Z,100.00
2023-05-18T05:08:21.616Z,100.00
2023-05-18T05:10:49.268Z,100.00
2023-05-18T05:13:16.775Z,100.00
2023-05-18T05:15:44.468Z,100.00
2023-05-18T05:18:12.104Z,100.00
2023-05-18T05:20:39.783Z,100.00
2023-05-18T05:23:07.422Z,100.00
2023-05-18T05:25:35.043Z,100.00
2023-05-18T05:28:02.586Z,100.00
2023-05-18T05:30:30.323Z,100.00
2023-05-18T05:32:57.914Z,100.00
2023-05-18T05:35:25.597Z,100.00
2023-05-18T05:37:53.190Z,100.00
2023-05-18T05:40:21.722Z,100.00
2023-05-18T05:42:49.224Z,100.00
2023-05-18T05:45:16.885Z,100.00
2023-05-18T05:47:44.398Z,100.00
2023-05-18T05:50:11.982Z,100.00
2023-05-18T05:52:39.521Z,100.00
2023-05-18T05:55:07.387Z,100.00
2023-05-18T05:57:35.003Z,100.00
2023-05-18T06:00:04.335Z,100.00
2023-05-18T06:02:31.905Z,100.00
2023-05-18T06:04:59.538Z,100.00
2023-05-18T06:07:27.074Z,100.00
2023-05-18T06:09:54.642Z,100.00
2023-05-18T06:12:22.383Z,100.00
2023-05-18T06:14:49.914Z,100.00
2023-05-18T06:17:17.440Z,100.00
2023-05-18T06:19:44.989Z,100.00
2023-05-18T06:22:12.655Z,100.00
2023-05-18T06:24:40.238Z,100.00
2023-05-18T06:27:07.766Z,100.00
2023-05-18T06:29:35.357Z,100.00
2023-05-18T06:32:03.139Z,100.00
2023-05-18T06:34:30.715Z,100.00
2023-05-18T06:36:58.596Z,100.00
2023-05-18T06:39:26.329Z,100.00
2023-05-18T06:41:53.967Z,100.00
2023-05-18T06:44:21.542Z,100.00
2023-05-18T06:46:49.957Z,97.89
2023-05-18T06:49:17.604Z,96.32
2023-05-18T06:51:45.852Z,95.35
2023-05-18T06:54:14.129Z,95.50
2023-05-18T06:56:41.687Z,95.03
2023-05-18T06:59:09.245Z,95.33
2023-05-18T07:01:36.823Z,92.42
2023-05-18T07:04:04.688Z,90.76
2023-05-18T07:06:32.402Z,90.10
2023-05-18T07:08:59.977Z,88.44
2023-05-18T07:11:29.631Z,89.08
2023-05-18T07:13:57.487Z,85.28
2023-05-18T07:16:27.032Z,85.61
2023-05-18T07:18:54.844Z,83.12
2023-05-18T07:21:22.542Z,83.21
2023-05-18T07:23:50.398Z,85.12
2023-05-18T07:26:17.895Z,86.29
2023-05-18T07:28:46.082Z,85.21
2023-05-18T07:31:16.310Z,85.55
2023-05-18T07:33:45.271Z,86.22
2023-05-18T07:36:12.848Z,84.05
2023-05-18T07:38:40.683Z,82.81
2023-05-18T07:41:08.236Z,85.27
2023-05-18T07:43:36.180Z,86.79
2023-05-18T07:46:03.779Z,84.61
2023-05-18T07:48:31.338Z,86.74
2023-05-18T07:50:59.523Z,85.56
2023-05-18T07:53:27.096Z,86.01
2023-05-18T07:55:54.730Z,86.80
2023-05-18T07:58:22.324Z,87.86
2023-05-18T08:00:50.062Z,87.75
2023-05-18T08:03:18.406Z,86.06
2023-05-18T08:05:45.950Z,87.57
2023-05-18T08:08:15.299Z,86.89
2023-05-18T08:10:43.335Z,86.15
2023-05-18T08:13:11.190Z,86.32
2023-05-18T08:15:40.707Z,87.53
2023-05-18T08:18:08.359Z,88.17
2023-05-18T08:20:36.067Z,85.65
2023-05-18T08:23:03.982Z,86.04
2023-05-18T08:25:31.744Z,85.23
2023-05-18T08:27:59.480Z,86.77
2023-05-18T08:30:27.199Z,86.22
2023-05-18T08:32:54.833Z,81.39
2023-05-18T08:35:22.457Z,83.35
2023-05-18T08:37:50.629Z,80.89
2023-05-18T08:40:18.471Z,81.57
2023-05-18T08:43:00.975Z,81.35
2023-05-18T08:45:41.209Z,81.16
2023-05-18T08:48:10.128Z,82.64
2023-05-18T08:50:38.985Z,79.60
2023-05-18T08:53:07.520Z,78.48
2023-05-18T08:55:37.005Z,79.49
2023-05-18T08:58:07.650Z,78.88
2023-05-18T09:00:35.896Z,74.98
2023-05-18T09:03:06.362Z,77.19
2023-05-18T09:05:34.491Z,76.00
2023-05-18T09:08:03.854Z,75.22
2023-05-18T09:10:34.673Z,74.90
2023-05-18T09:13:05.341Z,72.36
2023-05-18T09:15:35.251Z,72.14
2023-05-18T09:18:03.893Z,71.28
2023-05-18T09:20:32.122Z,68.72
2023-05-18T09:23:00.996Z,66.64
2023-05-18T09:25:31.272Z,65.98
2023-05-18T09:27:59.025Z,69.67
2023-05-18T09:30:26.673Z,71.31
2023-05-18T09:32:54.538Z,71.33
2023-05-18T09:35:22.839Z,65.95
2023-05-18T09:37:52.186Z,65.36
2023-05-18T09:40:20.751Z,64.62
2023-05-18T09:42:49.751Z,65.09
2023-05-18T09:45:20.015Z,62.62
2023-05-18T09:47:49.898Z,61.68
2023-05-18T09:50:21.028Z,61.22
2023-05-18T09:52:49.400Z,62.36
2023-05-18T09:55:18.124Z,62.63
2023-05-18T09:57:47.310Z,63.13
2023-05-18T10:00:17.078Z,63.68
2023-05-18T10:02:48.868Z,62.10
2023-05-18T10:05:24.658Z,61.85
2023-05-18T10:07:52.745Z,66.04
2023-05-18T10:10:23.044Z,67.14
2023-05-18T10:12:55.116Z,66.18
2023-05-18T10:15:24.905Z,64.13
2023-05-18T10:17:57.232Z,63.91
2023-05-18T10:20:26.921Z,63.94
2023-05-18T10:22:56.864Z,63.09
2023-05-18T10:25:27.387Z,62.27
2023-05-18T10:27:58.474Z,65.01
2023-05-18T10:30:27.515Z,63.65
2023-05-18T10:32:57.905Z,60.91
2023-05-18T10:35:28.336Z,63.34
2023-05-18T10:37:58.509Z,60.94
2023-05-18T10:40:28.071Z,59.36
2023-05-18T10:42:58.321Z,62.12
2023-05-18T10:45:27.610Z,59.23
2023-05-18T10:47:56.293Z,57.07
2023-05-18T10:50:24.545Z,59.98
2023-05-18T10:52:53.136Z,57.81
2023-05-18T10:55:20.993Z,59.13
2023-05-18T10:57:53.737Z,57.75
2023-05-18T11:00:21.648Z,58.35
2023-05-18T11:02:51.940Z,58.55
2023-05-18T11:05:26.797Z,57.89
2023-05-18T11:08:05.534Z,56.25
2023-05-18T11:10:42.614Z,57.79
2023-05-18T11:13:12.153Z,57.07
2023-05-18T11:15:55.252Z,57.69
2023-05-18T11:18:46.394Z,55.37
2023-05-18T11:21:31.169Z,56.25
2023-05-18T11:24:31.002Z,53.92
2023-05-18T11:27:03.482Z,55.50
2023-05-18T11:29:33.541Z,55.31
2023-05-18T11:32:01.734Z,55.24
2023-05-18T11:34:44.845Z,55.92
2023-05-18T11:37:17.435Z,56.24
2023-05-18T11:40:00.369Z,56.95
2023-05-18T11:42:35.496Z,55.24
2023-05-18T11:45:09.877Z,52.34
2023-05-18T11:47:40.336Z,50.10
2023-05-18T11:50:09.385Z,53.36
2023-05-18T11:52:47.918Z,53.83
2023-05-18T11:55:17.486Z,55.55
2023-05-18T11:57:46.234Z,54.46
2023-05-18T12:00:15.717Z,52.64
2023-05-18T12:02:49.452Z,54.14
2023-05-18T12:05:17.919Z,52.87
2023-05-18T12:07:45.912Z,50.13
2023-05-18T12:10:16.135Z,51.70
2023-05-18T12:12:44.202Z,52.68
2023-05-18T12:15:15.738Z,53.47
2023-05-18T12:17:52.130Z,52.71
2023-05-18T12:20:21.750Z,51.51
2023-05-18T12:22:52.168Z,51.01
2023-05-18T12:25:21.593Z,51.61
2023-05-18T12:27:49.296Z,50.78
2023-05-18T12:30:16.818Z,49.63
2023-05-18T12:32:58.023Z,49.43
2023-05-18T12:35:29.530Z,47.90
2023-05-18T12:38:00.493Z,50.13
2023-05-18T12:40:29.749Z,49.20
2023-05-18T12:42:59.570Z,50.02
2023-05-18T12:45:32.616Z,49.37
2023-05-18T12:48:07.877Z,50.70
2023-05-18T12:50:37.261Z,49.53
2023-05-18T12:53:05.241Z,47.86
2023-05-18T12:55:33.357Z,47.14
2023-05-18T12:58:02.176Z,46.73
2023-05-18T13:00:36.655Z,47.12
2023-05-18T13:03:15.081Z,46.83
2023-05-18T13:06:02.513Z,46.66
2023-05-18T13:08:30.143Z,47.65
2023-05-18T13:11:12.647Z,48.47
2023-05-18T13:13:58.785Z,47.61
2023-05-18T13:16:28.482Z,46.60
2023-05-18T13:19:01.175Z,46.35
2023-05-18T13:21:29.582Z,47.44
2023-05-18T13:23:57.163Z,46.62
2023-05-18T13:26:25.881Z,43.24
2023-05-18T13:28:55.983Z,42.17
2023-05-18T13:31:25.066Z,44.59
2023-05-18T13:33:52.823Z,43.04
2023-05-18T13:36:20.483Z,41.88
2023-05-18T13:38:48.045Z,42.67
2023-05-18T13:41:15.693Z,41.85
2023-05-18T13:43:43.733Z,42.82
2023-05-18T13:46:11.278Z,42.14
2023-05-18T13:48:38.899Z,43.96
2023-05-18T13:51:06.615Z,43.48
2023-05-18T13:53:34.185Z,42.20
2023-05-18T13:56:01.803Z,42.04
2023-05-18T13:58:29.313Z,42.40
2023-05-18T14:00:56.920Z,42.86
2023-05-18T14:03:24.744Z,41.66
2023-05-18T14:05:52.477Z,41.13
2023-05-18T14:08:19.965Z,40.85
2023-05-18T14:10:47.567Z,40.54
2023-05-18T14:13:15.145Z,44.15
2023-05-18T14:15:42.728Z,43.69
2023-05-18T14:18:10.401Z,42.08
2023-05-18T14:20:38.167Z,42.26
2023-05-18T14:23:07.550Z,45.66
2023-05-18T14:25:37.004Z,42.99
2023-05-18T14:28:04.601Z,44.72
2023-05-18T14:30:32.524Z,44.92
2023-05-18T14:33:01.392Z,44.53
2023-05-18T14:35:29.045Z,45.05
2023-05-18T14:37:56.601Z,46.15
2023-05-18T14:40:24.209Z,47.34
2023-05-18T14:42:53.831Z,49.19
2023-05-18T14:45:21.650Z,48.73
2023-05-18T14:47:49.244Z,48.18
2023-05-18T14:50:16.884Z,48.98
2023-05-18T14:52:44.399Z,48.60
2023-05-18T14:55:12.020Z,47.39
2023-05-18T14:57:39.687Z,47.11
2023-05-18T15:00:08.006Z,48.36
2023-05-18T15:02:35.766Z,47.70
2023-05-18T15:05:03.328Z,46.76
2023-05-18T15:07:30.949Z,48.10
2023-05-18T15:09:58.554Z,50.28
2023-05-18T15:12:26.074Z,49.63
2023-05-18T15:14:53.994Z,47.70
2023-05-18T15:17:21.769Z,48.45
2023-05-18T15:19:49.363Z,48.94
2023-05-18T15:22:17.077Z,49.83
2023-05-18T15:24:44.792Z,49.54
2023-05-18T15:27:12.637Z,48.22
2023-05-18T15:29:40.251Z,47.91
2023-05-18T15:32:08.321Z,47.58
2023-05-18T15:34:36.016Z,48.86
2023-05-18T15:37:03.549Z,48.04
2023-05-18T15:39:31.381Z,48.69
2023-05-18T15:41:58.905Z,47.48
2023-05-18T15:44:28.010Z,47.90
2023-05-18T15:46:57.136Z,46.52
2023-05-18T15:49:25.448Z,47.51
2023-05-18T15:51:53.059Z,48.34
2023-05-18T15:54:20.626Z,49.17
2023-05-18T15:56:48.330Z,49.07
2023-05-18T15:59:16.053Z,50.07
2023-05-18T16:01:43.681Z,48.18
2023-05-18T16:04:11.343Z,48.47
2023-05-18T16:06:38.838Z,48.34
2023-05-18T16:09:06.453Z,47.76
2023-05-18T16:11:35.636Z,47.94
2023-05-18T16:14:03.759Z,49.60
2023-05-18T16:16:31.823Z,49.50
2023-05-18T16:19:00.616Z,49.38
2023-05-18T16:21:28.298Z,50.15
2023-05-18T16:23:56.391Z,49.03
2023-05-18T16:26:24.013Z,49.03
2023-05-18T16:28:51.725Z,49.60
2023-05-18T16:31:19.448Z,49.16
2023-05-18T16:33:47.641Z,49.26
2023-05-18T16:36:15.369Z,49.59
2023-05-18T16:38:42.960Z,49.15
2023-05-18T16:41:10.917Z,49.78
2023-05-18T16:43:38.440Z,48.02
2023-05-18T16:46:06.062Z,49.14
2023-05-18T16:48:33.696Z,49.81
2023-05-18T16:51:01.350Z,51.06
2023-05-18T16:53:28.929Z,50.67
2023-05-18T16:55:56.684Z,50.42
2023-05-18T16:58:24.276Z,51.17
2023-05-18T17:00:51.827Z,51.62
2023-05-18T17:03:19.531Z,52.45
2023-05-18T17:05:47.206Z,51.46
2023-05-18T17:08:15.093Z,52.38
2023-05-18T17:10:42.647Z,53.06
2023-05-18T17:13:10.229Z,52.59
2023-05-18T17:15:38.844Z,53.08
2023-05-18T17:18:06.550Z,53.92
2023-05-18T17:20:34.341Z,53.75
2023-05-18T17:23:02.221Z,54.14
2023-05-18T17:25:29.904Z,54.34
2023-05-18T17:27:58.702Z,54.54
2023-05-18T17:30:26.335Z,53.90
2023-05-18T17:32:54.805Z,55.04
2023-05-18T17:35:22.373Z,55.39
2023-05-18T17:37:49.928Z,54.45
2023-05-18T17:40:17.500Z,56.30
2023-05-18T17:42:45.078Z,55.49
2023-05-18T17:45:12.700Z,55.28
2023-05-18T17:47:41.778Z,56.47
2023-05-18T17:50:09.700Z,57.76
2023-05-18T17:52:37.270Z,58.09
2023-05-18T17:55:05.054Z,58.44
2023-05-18T17:57:33.802Z,58.63
2023-05-18T18:00:01.340Z,60.11
2023-05-18T18:02:28.861Z,58.75
2023-05-18T18:04:56.715Z,59.59
2023-05-18T18:07:24.276Z,60.49
2023-05-18T18:09:51.832Z,59.98
2023-05-18T18:12:19.356Z,60.48
2023-05-18T18:14:46.909Z,60.81
2023-05-18T18:17:14.500Z,61.41
2023-05-18T18:19:42.124Z,61.46
2023-05-18T18:22:09.724Z,61.13
2023-05-18T18:24:37.307Z,60.67
2023-05-18T18:27:05.424Z,62.44
2023-05-18T18:29:32.912Z,62.89
2023-05-18T18:32:00.491Z,63.77
2023-05-18T18:34:28.041Z,63.13
2023-05-18T18:36:56.768Z,63.98
2023-05-18T18:39:24.948Z,64.73
2023-05-18T18:41:52.486Z,64.38
2023-05-18T18:44:19.992Z,65.68
2023-05-18T18:46:47.784Z,65.89
2023-05-18T18:49:15.509Z,66.17
2023-05-18T18:51:43.204Z,66.59
2023-05-18T18:54:10.877Z,64.82
2023-05-18T18:56:38.473Z,64.81
2023-05-18T18:59:06.248Z,65.72
2023-05-18T19:01:33.928Z,64.50
2023-05-18T19:04:01.556Z,66.04
2023-05-18T19:06:29.195Z,68.94
2023-05-18T19:08:56.730Z,69.79
2023-05-18T19:11:24.291Z,68.31
2023-05-18T19:13:51.846Z,68.00
2023-05-18T19:16:19.575Z,68.59
2023-05-18T19:18:47.539Z,68.18
2023-05-18T19:21:15.154Z,67.92
2023-05-18T19:23:42.798Z,68.32
2023-05-18T19:26:10.506Z,69.18
2023-05-18T19:28:38.041Z,70.70
2023-05-18T19:31:05.701Z,73.12
2023-05-18T19:33:33.492Z,75.13
2023-05-18T19:36:01.268Z,76.51
2023-05-18T19:38:28.791Z,78.99
2023-05-18T19:40:56.337Z,80.40
2023-05-18T19:43:23.919Z,82.63
2023-05-18T19:45:51.716Z,83.08
2023-05-18T19:48:19.423Z,84.68
2023-05-18T19:50:46.948Z,84.25
2023-05-18T19:53:14.602Z,84.43
2023-05-18T19:55:42.639Z,85.09
2023-05-18T19:58:10.270Z,85.54
2023-05-18T20:00:38.353Z,85.42
2023-05-18T20:03:06.485Z,85.97
2023-05-18T20:05:34.297Z,86.66
2023-05-18T20:08:02.943Z,87.36
2023-05-18T20:10:30.629Z,88.35
2023-05-18T20:12:58.304Z,89.76
2023-05-18T20:15:26.108Z,92.02
2023-05-18T20:17:53.718Z,93.24
2023-05-18T20:20:21.347Z,94.64
2023-05-18T20:22:48.855Z,95.89
2023-05-18T20:25:16.476Z,100.00
2023-05-18T20:27:44.003Z,100.00
2023-05-18T20:30:11.760Z,100.00
2023-05-18T20:32:39.314Z,100.00
2023-05-18T20:35:07.192Z,100.00
2023-05-18T20:37:35.041Z,100.00
2023-05-18T20:40:08.859Z,100.00
2023-05-18T20:42:40.288Z,100.00
2023-05-18T20:45:09.188Z,100.00
2023-05-18T20:47:36.808Z,100.00
2023-05-18T20:50:04.584Z,100.00
2023-05-18T20:52:32.166Z,100.00
2023-05-18T20:54:59.696Z,100.00
2023-05-18T20:57:28.269Z,100.00
2023-05-18T20:59:55.946Z,100.00
2023-05-18T21:02:23.664Z,100.00
2023-05-18T21:04:51.297Z,100.00
2023-05-18T21:07:21.123Z,100.00
2023-05-18T21:09:48.650Z,100.00
2023-05-18T21:12:16.223Z,100.00
2023-05-18T21:14:43.783Z,100.00
2023-05-18T21:17:11.393Z,100.00
2023-05-18T21:19:38.972Z,100.00
2023-05-18T21:22:06.462Z,100.00
2023-05-18T21:24:33.971Z,100.00
2023-05-18T21:27:01.606Z,100.00
2023-05-18T21:29:29.134Z,100.00
2023-05-18T21:31:56.797Z,100.00
2023-05-18T21:34:24.435Z,100.00
2023-05-18T21:36:52.132Z,100.00
2023-05-18T21:39:19.626Z,100.00
2023-05-18T21:41:47.219Z,100.00
2023-05-18T21:44:14.845Z,100.00
2023-05-18T21:46:42.430Z,100.00
2023-05-18T21:49:09.953Z,100.00
2023-05-18T21:51:37.592Z,100.00
2023-05-18T21:54:05.261Z,100.00
2023-05-18T21:56:34.609Z,100.00
2023-05-18T21:59:02.162Z,100.00
2023-05-18T22:01:29.720Z,100.00
2023-05-18T22:03:57.631Z,100.00
2023-05-18T22:06:25.267Z,100.00
2023-05-18T22:08:52.818Z,100.00
2023-05-18T22:11:21.451Z,100.00
2023-05-18T22:13:48.983Z,100.00
2023-05-18T22:16:16.505Z,100.00
2023-05-18T22:18:44.074Z,100.00
2023-05-18T22:21:11.752Z,100.00
2023-05-18T22:23:39.779Z,100.00
2023-05-18T22:26:07.370Z,100.00
2023-05-18T22:28:35.006Z,100.00
2023-05-18T22:31:02.559Z,100.00
2023-05-18T22:33:30.105Z,100.00
2023-05-18T22:35:57.726Z,100.00
2023-05-18T22:38:25.522Z,100.00
2023-05-18T22:40:54.069Z,100.00
2023-05-18T22:43:22.964Z,100.00
2023-05-18T22:45:50.599Z,100.00
2023-05-18T22:48:18.193Z,100.00
2023-05-18T22:50:46.316Z,100.00
2023-05-18T22:53:13.950Z,100.00
2023-05-18T22:55:41.561Z,100.00
2023-05-18T22:58:09.120Z,100.00
2023-05-18T23:00:36.646Z,100.00
2023-05-18T23:03:04.275Z,100.00
2023-05-18T23:05:32.752Z,100.00
2023-05-18T23:08:02.704Z,100.00
2023-05-18T23:10:30.787Z,100.00
2023-05-18T23:12:59.764Z,100.00
2023-05-18T23:15:27.746Z,100.00
2023-05-18T23:17:55.577Z,100.00
2023-05-18T23:20:23.730Z,100.00
2023-05-18T23:22:51.499Z,100.00
2023-05-18T23:25:19.335Z,100.00
2023-05-18T23:27:46.939Z,100.00
2023-05-18T23:30:14.612Z,100.00
2023-05-18T23:32:42.561Z,100.00
2023-05-18T23:35:13.224Z,100.00
2023-05-18T23:37:42.950Z,100.00
2023-05-18T23:40:12.920Z,100.00
2023-05-18T23:42:40.821Z,100.00
2023-05-18T23:45:09.119Z,100.00
2023-05-18T23:47:37.017Z,100.00
2023-05-18T23:50:05.037Z,100.00
2023-05-18T23:52:33.538Z,100.00
2023-05-18T23:55:02.612Z,100.00
2023-05-18T23:57:31.484Z,100.00
2023-05-18T23:59:59.515Z,100.00
